sensor_id;sensor_type;location;lat;lon;timestamp;P1;durP1;ratioP1;P2;durP2;ratioP2
66270;SDS011;53063;39.614;8.814;2023-02-28T00:00:50;8.95;;;3.25;;
66270;SDS011;53063;39.614;8.814;2023-02-28T00:03:16;4.47;;;2.83;;
66270;SDS011;53063;39.614;8.814;2023-02-28T00:05:42;4.10;;;2.65;;
66270;SDS011;53063;39.614;8.814;2023-02-28T00:08:08;3.05;;;1.50;;
66270;SDS011;53063;39.614;8.814;2023-02-28T00:10:34;4.28;;;1.52;;
66270;SDS011;53063;39.614;8.814;2023-02-28T00:13:02;3.38;;;1.42;;
66270;SDS011;53063;39.614;8.814;2023-02-28T00:15:30;4.35;;;1.35;;
66270;SDS011;53063;39.614;8.814;2023-02-28T00:17:57;1.50;;;1.30;;
66270;SDS011;53063;39.614;8.814;2023-02-28T00:20:23;1.25;;;0.90;;
66270;SDS011;53063;39.614;8.814;2023-02-28T00:22:51;2.88;;;1.63;;
66270;SDS011;53063;39.614;8.814;2023-02-28T00:25:18;3.20;;;1.13;;
66270;SDS011;53063;39.614;8.814;2023-02-28T00:27:46;2.85;;;1.30;;
66270;SDS011;53063;39.614;8.814;2023-02-28T00:32:46;3.35;;;1.55;;
66270;SDS011;53063;39.614;8.814;2023-02-28T00:35:13;5.32;;;2.00;;
66270;SDS011;53063;39.614;8.814;2023-02-28T00:37:40;3.60;;;1.58;;
66270;SDS011;53063;39.614;8.814;2023-02-28T00:40:07;1.55;;;1.20;;
66270;SDS011;53063;39.614;8.814;2023-02-28T00:42:34;3.28;;;1.50;;
66270;SDS011;53063;39.614;8.814;2023-02-28T00:45:00;5.00;;;1.90;;
66270;SDS011;53063;39.614;8.814;2023-02-28T00:47:29;2.95;;;1.42;;
66270;SDS011;53063;39.614;8.814;2023-02-28T00:49:55;1.60;;;1.10;;
66270;SDS011;53063;39.614;8.814;2023-02-28T00:52:20;2.08;;;1.27;;
66270;SDS011;53063;39.614;8.814;2023-02-28T00:54:47;2.05;;;1.08;;
66270;SDS011;53063;39.614;8.814;2023-02-28T00:57:13;4.00;;;1.27;;
66270;SDS011;53063;39.614;8.814;2023-02-28T00:59:39;2.05;;;1.00;;
66270;SDS011;53063;39.614;8.814;2023-02-28T01:02:06;3.05;;;1.27;;
66270;SDS011;53063;39.614;8.814;2023-02-28T01:04:31;1.73;;;1.13;;
66270;SDS011;53063;39.614;8.814;2023-02-28T01:07:00;3.80;;;1.35;;
66270;SDS011;53063;39.614;8.814;2023-02-28T01:09:27;2.38;;;0.90;;
66270;SDS011;53063;39.614;8.814;2023-02-28T01:11:53;2.70;;;1.13;;
66270;SDS011;53063;39.614;8.814;2023-02-28T01:14:19;1.33;;;1.05;;
66270;SDS011;53063;39.614;8.814;2023-02-28T01:16:45;6.60;;;1.23;;
66270;SDS011;53063;39.614;8.814;2023-02-28T01:19:11;2.58;;;0.95;;
66270;SDS011;53063;39.614;8.814;2023-02-28T01:21:38;0.70;;;0.60;;
66270;SDS011;53063;39.614;8.814;2023-02-28T01:24:04;2.85;;;0.80;;
66270;SDS011;53063;39.614;8.814;2023-02-28T01:26:31;1.30;;;0.98;;
66270;SDS011;53063;39.614;8.814;2023-02-28T01:28:57;3.10;;;1.13;;
66270;SDS011;53063;39.614;8.814;2023-02-28T01:31:24;2.60;;;1.35;;
66270;SDS011;53063;39.614;8.814;2023-02-28T01:33:50;2.45;;;1.05;;
66270;SDS011;53063;39.614;8.814;2023-02-28T01:36:18;2.90;;;1.48;;
66270;SDS011;53063;39.614;8.814;2023-02-28T01:38:46;2.55;;;1.20;;
66270;SDS011;53063;39.614;8.814;2023-02-28T01:41:22;2.47;;;1.00;;
66270;SDS011;53063;39.614;8.814;2023-02-28T01:43:53;1.50;;;0.65;;
66270;SDS011;53063;39.614;8.814;2023-02-28T01:46:21;1.63;;;0.80;;
66270;SDS011;53063;39.614;8.814;2023-02-28T01:51:23;2.28;;;0.88;;
66270;SDS011;53063;39.614;8.814;2023-02-28T01:54:01;1.10;;;0.50;;
66270;SDS011;53063;39.614;8.814;2023-02-28T01:56:31;1.73;;;0.77;;
66270;SDS011;53063;39.614;8.814;2023-02-28T01:59:00;2.08;;;0.52;;
66270;SDS011;53063;39.614;8.814;2023-02-28T02:01:26;0.95;;;0.60;;
66270;SDS011;53063;39.614;8.814;2023-02-28T02:03:53;1.25;;;0.68;;
66270;SDS011;53063;39.614;8.814;2023-02-28T02:06:24;2.72;;;0.63;;
66270;SDS011;53063;39.614;8.814;2023-02-28T02:08:54;0.63;;;0.60;;
66270;SDS011;53063;39.614;8.814;2023-02-28T02:11:20;0.55;;;0.55;;
66270;SDS011;53063;39.614;8.814;2023-02-28T02:18:52;2.15;;;0.82;;
66270;SDS011;53063;39.614;8.814;2023-02-28T02:33:41;3.35;;;0.68;;
66270;SDS011;53063;39.614;8.814;2023-02-28T02:46:47;2.08;;;0.47;;
66270;SDS011;53063;39.614;8.814;2023-02-28T02:49:20;0.65;;;0.50;;
66270;SDS011;53063;39.614;8.814;2023-02-28T02:51:51;0.82;;;0.55;;
66270;SDS011;53063;39.614;8.814;2023-02-28T02:54:32;0.68;;;0.63;;
66270;SDS011;53063;39.614;8.814;2023-02-28T02:59:34;0.77;;;0.35;;
66270;SDS011;53063;39.614;8.814;2023-02-28T03:02:04;1.10;;;0.50;;
66270;SDS011;53063;39.614;8.814;2023-02-28T03:04:35;0.90;;;0.60;;
66270;SDS011;53063;39.614;8.814;2023-02-28T03:07:12;0.60;;;0.50;;
66270;SDS011;53063;39.614;8.814;2023-02-28T03:09:38;1.55;;;0.40;;
66270;SDS011;53063;39.614;8.814;2023-02-28T03:12:07;2.00;;;0.80;;
66270;SDS011;53063;39.614;8.814;2023-02-28T03:17:27;1.00;;;0.50;;
66270;SDS011;53063;39.614;8.814;2023-02-28T03:23:16;0.77;;;0.50;;
66270;SDS011;53063;39.614;8.814;2023-02-28T03:28:22;2.13;;;0.43;;
66270;SDS011;53063;39.614;8.814;2023-02-28T03:30:57;0.55;;;0.30;;
66270;SDS011;53063;39.614;8.814;2023-02-28T03:36:07;0.50;;;0.50;;
66270;SDS011;53063;39.614;8.814;2023-02-28T03:41:12;1.27;;;0.43;;
66270;SDS011;53063;39.614;8.814;2023-02-28T03:43:59;3.97;;;0.50;;
66270;SDS011;53063;39.614;8.814;2023-02-28T03:46:42;1.02;;;0.40;;
66270;SDS011;53063;39.614;8.814;2023-02-28T03:49:36;0.32;;;0.32;;
66270;SDS011;53063;39.614;8.814;2023-02-28T03:52:14;0.40;;;0.40;;
66270;SDS011;53063;39.614;8.814;2023-02-28T03:54:45;0.40;;;0.40;;
66270;SDS011;53063;39.614;8.814;2023-02-28T03:57:20;0.77;;;0.50;;
66270;SDS011;53063;39.614;8.814;2023-02-28T03:59:56;0.60;;;0.40;;
66270;SDS011;53063;39.614;8.814;2023-02-28T04:02:37;1.23;;;0.38;;
66270;SDS011;53063;39.614;8.814;2023-02-28T04:05:05;1.98;;;0.50;;
66270;SDS011;53063;39.614;8.814;2023-02-28T04:07:31;2.92;;;0.70;;
66270;SDS011;53063;39.614;8.814;2023-02-28T04:09:57;3.33;;;1.17;;
66270;SDS011;53063;39.614;8.814;2023-02-28T04:12:24;3.45;;;1.30;;
66270;SDS011;53063;39.614;8.814;2023-02-28T04:14:50;2.80;;;0.85;;
66270;SDS011;53063;39.614;8.814;2023-02-28T04:17:16;1.77;;;0.50;;
66270;SDS011;53063;39.614;8.814;2023-02-28T04:19:43;1.58;;;0.40;;
66270;SDS011;53063;39.614;8.814;2023-02-28T04:22:09;2.03;;;0.40;;
66270;SDS011;53063;39.614;8.814;2023-02-28T04:24:36;1.65;;;0.63;;
66270;SDS011;53063;39.614;8.814;2023-02-28T04:27:06;1.00;;;0.40;;
66270;SDS011;53063;39.614;8.814;2023-02-28T04:29:34;1.38;;;0.70;;
66270;SDS011;53063;39.614;8.814;2023-02-28T04:32:00;1.10;;;0.70;;
66270;SDS011;53063;39.614;8.814;2023-02-28T04:34:27;0.93;;;0.75;;
66270;SDS011;53063;39.614;8.814;2023-02-28T04:36:56;0.70;;;0.50;;
66270;SDS011;53063;39.614;8.814;2023-02-28T04:39:23;0.57;;;0.40;;
66270;SDS011;53063;39.614;8.814;2023-02-28T04:41:49;2.13;;;0.50;;
66270;SDS011;53063;39.614;8.814;2023-02-28T04:44:15;2.25;;;0.50;;
66270;SDS011;53063;39.614;8.814;2023-02-28T04:46:42;1.67;;;0.60;;
66270;SDS011;53063;39.614;8.814;2023-02-28T04:49:12;1.10;;;0.50;;
66270;SDS011;53063;39.614;8.814;2023-02-28T04:51:38;1.88;;;0.60;;
66270;SDS011;53063;39.614;8.814;2023-02-28T04:54:04;1.23;;;0.50;;
66270;SDS011;53063;39.614;8.814;2023-02-28T04:56:30;1.00;;;0.60;;
66270;SDS011;53063;39.614;8.814;2023-02-28T04:58:56;0.57;;;0.43;;
66270;SDS011;53063;39.614;8.814;2023-02-28T05:01:24;1.63;;;0.50;;
66270;SDS011;53063;39.614;8.814;2023-02-28T05:03:53;0.47;;;0.40;;
66270;SDS011;53063;39.614;8.814;2023-02-28T05:06:20;1.25;;;0.50;;
66270;SDS011;53063;39.614;8.814;2023-02-28T05:08:49;0.55;;;0.30;;
66270;SDS011;53063;39.614;8.814;2023-02-28T05:11:16;3.13;;;0.68;;
66270;SDS011;53063;39.614;8.814;2023-02-28T05:13:45;1.85;;;0.68;;
66270;SDS011;53063;39.614;8.814;2023-02-28T05:16:11;1.88;;;0.65;;
66270;SDS011;53063;39.614;8.814;2023-02-28T05:18:37;0.98;;;0.57;;
66270;SDS011;53063;39.614;8.814;2023-02-28T05:21:03;1.67;;;1.10;;
66270;SDS011;53063;39.614;8.814;2023-02-28T05:23:29;2.50;;;1.05;;
66270;SDS011;53063;39.614;8.814;2023-02-28T05:25:55;2.42;;;1.25;;
66270;SDS011;53063;39.614;8.814;2023-02-28T05:28:22;2.15;;;0.82;;
66270;SDS011;53063;39.614;8.814;2023-02-28T05:30:48;1.60;;;0.73;;
66270;SDS011;53063;39.614;8.814;2023-02-28T05:33:13;1.23;;;0.63;;
66270;SDS011;53063;39.614;8.814;2023-02-28T05:35:40;1.05;;;0.40;;
66270;SDS011;53063;39.614;8.814;2023-02-28T05:38:08;1.45;;;0.40;;
66270;SDS011;53063;39.614;8.814;2023-02-28T05:40:34;1.58;;;0.68;;
66270;SDS011;53063;39.614;8.814;2023-02-28T05:43:00;0.35;;;0.30;;
66270;SDS011;53063;39.614;8.814;2023-02-28T05:45:26;1.75;;;0.30;;
66270;SDS011;53063;39.614;8.814;2023-02-28T05:47:55;0.95;;;0.52;;
66270;SDS011;53063;39.614;8.814;2023-02-28T05:50:21;3.00;;;0.55;;
66270;SDS011;53063;39.614;8.814;2023-02-28T05:52:50;1.58;;;0.70;;
66270;SDS011;53063;39.614;8.814;2023-02-28T05:55:16;1.52;;;0.57;;
66270;SDS011;53063;39.614;8.814;2023-02-28T05:57:42;2.13;;;0.45;;
66270;SDS011;53063;39.614;8.814;2023-02-28T06:00:08;0.65;;;0.45;;
66270;SDS011;53063;39.614;8.814;2023-02-28T06:02:38;1.95;;;0.57;;
66270;SDS011;53063;39.614;8.814;2023-02-28T06:05:06;3.22;;;1.83;;
66270;SDS011;53063;39.614;8.814;2023-02-28T06:07:40;2.75;;;1.70;;
66270;SDS011;53063;39.614;8.814;2023-02-28T06:10:07;2.00;;;1.15;;
66270;SDS011;53063;39.614;8.814;2023-02-28T06:12:34;3.55;;;1.55;;
66270;SDS011;53063;39.614;8.814;2023-02-28T06:15:00;3.78;;;1.80;;
66270;SDS011;53063;39.614;8.814;2023-02-28T06:17:26;2.58;;;1.00;;
66270;SDS011;53063;39.614;8.814;2023-02-28T06:19:52;2.30;;;0.80;;
66270;SDS011;53063;39.614;8.814;2023-02-28T06:22:18;1.30;;;0.90;;
66270;SDS011;53063;39.614;8.814;2023-02-28T06:24:44;1.48;;;1.00;;
66270;SDS011;53063;39.614;8.814;2023-02-28T06:27:10;2.22;;;1.35;;
66270;SDS011;53063;39.614;8.814;2023-02-28T06:29:35;2.30;;;1.25;;
66270;SDS011;53063;39.614;8.814;2023-02-28T06:32:04;5.00;;;1.30;;
66270;SDS011;53063;39.614;8.814;2023-02-28T06:34:31;3.33;;;1.50;;
66270;SDS011;53063;39.614;8.814;2023-02-28T06:37:00;2.42;;;1.20;;
66270;SDS011;53063;39.614;8.814;2023-02-28T06:39:28;1.17;;;0.68;;
66270;SDS011;53063;39.614;8.814;2023-02-28T06:41:54;0.77;;;0.50;;
66270;SDS011;53063;39.614;8.814;2023-02-28T06:44:20;0.75;;;0.50;;
66270;SDS011;53063;39.614;8.814;2023-02-28T06:46:47;1.90;;;0.50;;
66270;SDS011;53063;39.614;8.814;2023-02-28T06:49:13;0.65;;;0.63;;
66270;SDS011;53063;39.614;8.814;2023-02-28T06:51:40;2.08;;;1.00;;
66270;SDS011;53063;39.614;8.814;2023-02-28T06:54:07;4.72;;;2.45;;
66270;SDS011;53063;39.614;8.814;2023-02-28T06:56:36;3.38;;;1.38;;
66270;SDS011;53063;39.614;8.814;2023-02-28T06:59:02;4.45;;;2.28;;
66270;SDS011;53063;39.614;8.814;2023-02-28T07:01:29;2.33;;;1.13;;
66270;SDS011;53063;39.614;8.814;2023-02-28T07:03:56;2.03;;;1.10;;
66270;SDS011;53063;39.614;8.814;2023-02-28T07:06:22;2.78;;;0.90;;
66270;SDS011;53063;39.614;8.814;2023-02-28T07:08:49;1.83;;;1.50;;
66270;SDS011;53063;39.614;8.814;2023-02-28T07:11:18;4.28;;;1.92;;
66270;SDS011;53063;39.614;8.814;2023-02-28T07:13:45;18.50;;;4.97;;
66270;SDS011;53063;39.614;8.814;2023-02-28T07:16:12;2.13;;;1.52;;
66270;SDS011;53063;39.614;8.814;2023-02-28T07:18:38;6.60;;;2.80;;
66270;SDS011;53063;39.614;8.814;2023-02-28T07:21:05;2.95;;;1.92;;
66270;SDS011;53063;39.614;8.814;2023-02-28T07:23:33;6.43;;;3.50;;
66270;SDS011;53063;39.614;8.814;2023-02-28T07:26:00;6.70;;;4.75;;
66270;SDS011;53063;39.614;8.814;2023-02-28T07:28:26;7.53;;;2.65;;
66270;SDS011;53063;39.614;8.814;2023-02-28T07:30:52;6.00;;;3.03;;
66270;SDS011;53063;39.614;8.814;2023-02-28T07:33:18;2.45;;;1.92;;
66270;SDS011;53063;39.614;8.814;2023-02-28T07:35:44;2.45;;;1.65;;
66270;SDS011;53063;39.614;8.814;2023-02-28T07:38:10;1.83;;;0.90;;
66270;SDS011;53063;39.614;8.814;2023-02-28T07:40:39;1.40;;;0.90;;
66270;SDS011;53063;39.614;8.814;2023-02-28T07:43:05;0.32;;;0.30;;
66270;SDS011;53063;39.614;8.814;2023-02-28T07:45:31;2.80;;;0.90;;
66270;SDS011;53063;39.614;8.814;2023-02-28T07:47:59;0.90;;;0.60;;
66270;SDS011;53063;39.614;8.814;2023-02-28T07:50:26;0.95;;;0.47;;
66270;SDS011;53063;39.614;8.814;2023-02-28T07:52:56;1.08;;;0.47;;
66270;SDS011;53063;39.614;8.814;2023-02-28T07:55:23;0.47;;;0.47;;
66270;SDS011;53063;39.614;8.814;2023-02-28T07:57:49;15.35;;;10.93;;
66270;SDS011;53063;39.614;8.814;2023-02-28T08:00:15;3.22;;;1.52;;
66270;SDS011;53063;39.614;8.814;2023-02-28T08:02:41;4.63;;;3.30;;
66270;SDS011;53063;39.614;8.814;2023-02-28T08:05:07;4.40;;;3.00;;
66270;SDS011;53063;39.614;8.814;2023-02-28T08:07:33;6.43;;;2.55;;
66270;SDS011;53063;39.614;8.814;2023-02-28T08:09:59;6.97;;;4.13;;
66270;SDS011;53063;39.614;8.814;2023-02-28T08:12:25;2.72;;;2.08;;
66270;SDS011;53063;39.614;8.814;2023-02-28T08:14:51;1.08;;;0.77;;
66270;SDS011;53063;39.614;8.814;2023-02-28T08:17:17;1.15;;;0.80;;
66270;SDS011;53063;39.614;8.814;2023-02-28T08:19:47;2.78;;;1.95;;
66270;SDS011;53063;39.614;8.814;2023-02-28T08:22:12;11.40;;;4.78;;
66270;SDS011;53063;39.614;8.814;2023-02-28T08:24:39;45.80;;;14.73;;
66270;SDS011;53063;39.614;8.814;2023-02-28T08:27:07;65.60;;;20.02;;
66270;SDS011;53063;39.614;8.814;2023-02-28T08:29:33;28.05;;;12.52;;
66270;SDS011;53063;39.614;8.814;2023-02-28T08:32:01;8.02;;;4.18;;
66270;SDS011;53063;39.614;8.814;2023-02-28T08:34:27;5.38;;;2.80;;
66270;SDS011;53063;39.614;8.814;2023-02-28T08:36:53;12.40;;;5.10;;
66270;SDS011;53063;39.614;8.814;2023-02-28T08:39:19;4.05;;;2.28;;
66270;SDS011;53063;39.614;8.814;2023-02-28T08:41:45;7.70;;;3.45;;
66270;SDS011;53063;39.614;8.814;2023-02-28T08:44:11;4.55;;;2.25;;
66270;SDS011;53063;39.614;8.814;2023-02-28T08:46:37;4.45;;;1.63;;
66270;SDS011;53063;39.614;8.814;2023-02-28T08:49:03;2.88;;;1.33;;
66270;SDS011;53063;39.614;8.814;2023-02-28T08:51:29;2.00;;;1.50;;
66270;SDS011;53063;39.614;8.814;2023-02-28T08:53:57;3.60;;;1.38;;
66270;SDS011;53063;39.614;8.814;2023-02-28T08:56:25;2.40;;;1.60;;
66270;SDS011;53063;39.614;8.814;2023-02-28T08:58:54;3.30;;;2.17;;
66270;SDS011;53063;39.614;8.814;2023-02-28T09:01:22;3.75;;;2.40;;
66270;SDS011;53063;39.614;8.814;2023-02-28T09:03:52;5.15;;;1.92;;
66270;SDS011;53063;39.614;8.814;2023-02-28T09:06:19;3.45;;;2.35;;
66270;SDS011;53063;39.614;8.814;2023-02-28T09:08:46;5.30;;;3.03;;
66270;SDS011;53063;39.614;8.814;2023-02-28T09:11:12;8.10;;;4.68;;
66270;SDS011;53063;39.614;8.814;2023-02-28T09:13:39;9.27;;;4.78;;
66270;SDS011;53063;39.614;8.814;2023-02-28T09:16:07;3.50;;;2.22;;
66270;SDS011;53063;39.614;8.814;2023-02-28T09:18:35;3.97;;;2.38;;
66270;SDS011;53063;39.614;8.814;2023-02-28T09:21:03;5.40;;;3.65;;
66270;SDS011;53063;39.614;8.814;2023-02-28T09:23:30;10.13;;;4.60;;
66270;SDS011;53063;39.614;8.814;2023-02-28T09:25:56;5.65;;;2.28;;
66270;SDS011;53063;39.614;8.814;2023-02-28T09:28:22;4.07;;;1.98;;
66270;SDS011;53063;39.614;8.814;2023-02-28T09:30:49;8.57;;;2.63;;
66270;SDS011;53063;39.614;8.814;2023-02-28T09:33:17;3.88;;;2.35;;
66270;SDS011;53063;39.614;8.814;2023-02-28T09:35:46;6.10;;;3.45;;
66270;SDS011;53063;39.614;8.814;2023-02-28T09:38:12;4.72;;;2.63;;
66270;SDS011;53063;39.614;8.814;2023-02-28T09:43:20;8.55;;;4.78;;
66270;SDS011;53063;39.614;8.814;2023-02-28T09:45:52;6.70;;;3.47;;
66270;SDS011;53063;39.614;8.814;2023-02-28T09:48:25;3.10;;;2.15;;
66270;SDS011;53063;39.614;8.814;2023-02-28T09:51:04;3.60;;;2.45;;
66270;SDS011;53063;39.614;8.814;2023-02-28T09:53:38;5.80;;;2.00;;
66270;SDS011;53063;39.614;8.814;2023-02-28T09:56:48;4.82;;;1.90;;
66270;SDS011;53063;39.614;8.814;2023-02-28T09:59:18;5.07;;;2.50;;
66270;SDS011;53063;39.614;8.814;2023-02-28T10:09:57;4.40;;;2.88;;
66270;SDS011;53063;39.614;8.814;2023-02-28T10:12:26;7.65;;;2.97;;
66270;SDS011;53063;39.614;8.814;2023-02-28T10:14:54;4.40;;;2.58;;
66270;SDS011;53063;39.614;8.814;2023-02-28T10:17:25;4.63;;;2.70;;
66270;SDS011;53063;39.614;8.814;2023-02-28T10:19:59;4.38;;;2.20;;
66270;SDS011;53063;39.614;8.814;2023-02-28T10:22:34;3.78;;;1.90;;
66270;SDS011;53063;39.614;8.814;2023-02-28T10:25:12;6.93;;;3.33;;
66270;SDS011;53063;39.614;8.814;2023-02-28T10:27:46;3.55;;;1.83;;
66270;SDS011;53063;39.614;8.814;2023-02-28T10:30:12;3.50;;;2.10;;
66270;SDS011;53063;39.614;8.814;2023-02-28T10:32:43;7.05;;;2.53;;
66270;SDS011;53063;39.614;8.814;2023-02-28T10:35:20;3.33;;;1.80;;
66270;SDS011;53063;39.614;8.814;2023-02-28T10:37:49;2.60;;;1.80;;
66270;SDS011;53063;39.614;8.814;2023-02-28T10:45:29;5.78;;;2.70;;
66270;SDS011;53063;39.614;8.814;2023-02-28T10:53:23;4.82;;;2.80;;
66270;SDS011;53063;39.614;8.814;2023-02-28T10:55:58;7.22;;;2.28;;
66270;SDS011;53063;39.614;8.814;2023-02-28T11:01:23;4.93;;;2.10;;
66270;SDS011;53063;39.614;8.814;2023-02-28T11:04:01;3.90;;;1.75;;
66270;SDS011;53063;39.614;8.814;2023-02-28T11:06:31;4.05;;;2.63;;
66270;SDS011;53063;39.614;8.814;2023-02-28T11:08:59;4.90;;;2.70;;
66270;SDS011;53063;39.614;8.814;2023-02-28T11:11:29;5.22;;;2.10;;
66270;SDS011;53063;39.614;8.814;2023-02-28T11:14:14;3.42;;;2.42;;
66270;SDS011;53063;39.614;8.814;2023-02-28T11:16:47;6.60;;;2.30;;
66270;SDS011;53063;39.614;8.814;2023-02-28T11:19:22;6.70;;;2.80;;
66270;SDS011;53063;39.614;8.814;2023-02-28T11:21:53;4.68;;;2.42;;
66270;SDS011;53063;39.614;8.814;2023-02-28T11:27:00;3.45;;;1.98;;
66270;SDS011;53063;39.614;8.814;2023-02-28T11:29:28;5.72;;;1.90;;
66270;SDS011;53063;39.614;8.814;2023-02-28T11:32:04;7.20;;;2.65;;
66270;SDS011;53063;39.614;8.814;2023-02-28T11:34:30;4.43;;;1.98;;
66270;SDS011;53063;39.614;8.814;2023-02-28T11:36:58;5.70;;;2.33;;
66270;SDS011;53063;39.614;8.814;2023-02-28T11:39:26;3.97;;;2.53;;
66270;SDS011;53063;39.614;8.814;2023-02-28T11:41:56;9.70;;;2.30;;
66270;SDS011;53063;39.614;8.814;2023-02-28T11:47:15;5.88;;;3.20;;
66270;SDS011;53063;39.614;8.814;2023-02-28T11:52:54;12.85;;;3.85;;
66270;SDS011;53063;39.614;8.814;2023-02-28T11:55:49;13.70;;;4.55;;
66270;SDS011;53063;39.614;8.814;2023-02-28T12:06:54;5.28;;;1.40;;
66270;SDS011;53063;39.614;8.814;2023-02-28T12:14:50;6.95;;;1.90;;
66270;SDS011;53063;39.614;8.814;2023-02-28T12:17:45;9.82;;;3.00;;
66270;SDS011;53063;39.614;8.814;2023-02-28T12:23:42;9.52;;;3.88;;
66270;SDS011;53063;39.614;8.814;2023-02-28T12:29:15;7.93;;;3.10;;
66270;SDS011;53063;39.614;8.814;2023-02-28T12:32:25;8.13;;;1.85;;
66270;SDS011;53063;39.614;8.814;2023-02-28T12:34:42;5.10;;;2.50;;
66270;SDS011;53063;39.614;8.814;2023-02-28T12:37:24;4.57;;;2.42;;
66270;SDS011;53063;39.614;8.814;2023-02-28T12:40:05;2.63;;;1.58;;
66270;SDS011;53063;39.614;8.814;2023-02-28T12:43:19;5.10;;;2.50;;
66270;SDS011;53063;39.614;8.814;2023-02-28T12:45:43;3.22;;;1.13;;
66270;SDS011;53063;39.614;8.814;2023-02-28T12:48:27;5.25;;;1.75;;
66270;SDS011;53063;39.614;8.814;2023-02-28T12:50:58;5.05;;;3.40;;
66270;SDS011;53063;39.614;8.814;2023-02-28T12:56:22;4.03;;;1.77;;
66270;SDS011;53063;39.614;8.814;2023-02-28T12:58:48;5.55;;;2.10;;
66270;SDS011;53063;39.614;8.814;2023-02-28T13:09:33;6.05;;;2.25;;
66270;SDS011;53063;39.614;8.814;2023-02-28T13:11:59;6.90;;;3.08;;
66270;SDS011;53063;39.614;8.814;2023-02-28T13:19:27;6.57;;;2.10;;
66270;SDS011;53063;39.614;8.814;2023-02-28T13:21:56;3.72;;;1.70;;
66270;SDS011;53063;39.614;8.814;2023-02-28T13:24:41;6.65;;;2.33;;
66270;SDS011;53063;39.614;8.814;2023-02-28T13:27:11;4.07;;;1.65;;
66270;SDS011;53063;39.614;8.814;2023-02-28T13:29:57;3.28;;;1.55;;
66270;SDS011;53063;39.614;8.814;2023-02-28T13:32:31;5.45;;;1.50;;
66270;SDS011;53063;39.614;8.814;2023-02-28T13:39:51;3.63;;;1.58;;
66270;SDS011;53063;39.614;8.814;2023-02-28T13:42:52;6.57;;;2.55;;
66270;SDS011;53063;39.614;8.814;2023-02-28T13:46:03;14.95;;;6.65;;
66270;SDS011;53063;39.614;8.814;2023-02-28T13:48:36;7.50;;;2.97;;
66270;SDS011;53063;39.614;8.814;2023-02-28T13:51:25;6.43;;;2.17;;
66270;SDS011;53063;39.614;8.814;2023-02-28T13:56:50;3.10;;;0.80;;
66270;SDS011;53063;39.614;8.814;2023-02-28T14:04:58;4.13;;;1.40;;
66270;SDS011;53063;39.614;8.814;2023-02-28T14:07:28;2.88;;;1.13;;
66270;SDS011;53063;39.614;8.814;2023-02-28T14:10:00;5.80;;;2.10;;
66270;SDS011;53063;39.614;8.814;2023-02-28T14:20:48;10.18;;;2.97;;
66270;SDS011;53063;39.614;8.814;2023-02-28T14:26:12;3.38;;;1.85;;
66270;SDS011;53063;39.614;8.814;2023-02-28T14:31:22;1.15;;;1.00;;
66270;SDS011;53063;39.614;8.814;2023-02-28T14:36:44;2.22;;;1.30;;
66270;SDS011;53063;39.614;8.814;2023-02-28T14:39:15;10.55;;;5.20;;
66270;SDS011;53063;39.614;8.814;2023-02-28T14:41:44;0.30;;;0.30;;
66270;SDS011;53063;39.614;8.814;2023-02-28T14:44:22;1.67;;;0.55;;
66270;SDS011;53063;39.614;8.814;2023-02-28T14:46:56;3.53;;;1.02;;
66270;SDS011;53063;39.614;8.814;2023-02-28T14:49:51;0.82;;;0.50;;
66270;SDS011;53063;39.614;8.814;2023-02-28T14:52:21;3.67;;;2.88;;
66270;SDS011;53063;39.614;8.814;2023-02-28T14:55:12;13.57;;;6.30;;
66270;SDS011;53063;39.614;8.814;2023-02-28T14:58:02;3.67;;;1.65;;
66270;SDS011;53063;39.614;8.814;2023-02-28T15:00:33;7.65;;;3.08;;
66270;SDS011;53063;39.614;8.814;2023-02-28T15:03:22;4.78;;;1.95;;
66270;SDS011;53063;39.614;8.814;2023-02-28T15:06:02;4.82;;;2.78;;
66270;SDS011;53063;39.614;8.814;2023-02-28T15:08:30;6.82;;;3.13;;
66270;SDS011;53063;39.614;8.814;2023-02-28T15:11:33;2.70;;;1.63;;
66270;SDS011;53063;39.614;8.814;2023-02-28T15:13:52;5.65;;;1.50;;
66270;SDS011;53063;39.614;8.814;2023-02-28T15:16:22;3.33;;;1.52;;
66270;SDS011;53063;39.614;8.814;2023-02-28T15:18:59;1.65;;;1.00;;
66270;SDS011;53063;39.614;8.814;2023-02-28T15:24:05;0.80;;;0.80;;
66270;SDS011;53063;39.614;8.814;2023-02-28T15:26:56;2.15;;;0.82;;
66270;SDS011;53063;39.614;8.814;2023-02-28T15:29:25;1.42;;;0.90;;
66270;SDS011;53063;39.614;8.814;2023-02-28T15:32:00;2.25;;;0.98;;
66270;SDS011;53063;39.614;8.814;2023-02-28T15:34:38;1.58;;;1.00;;
66270;SDS011;53063;39.614;8.814;2023-02-28T15:40:07;2.45;;;1.38;;
66270;SDS011;53063;39.614;8.814;2023-02-28T15:42:39;4.28;;;1.98;;
66270;SDS011;53063;39.614;8.814;2023-02-28T15:45:26;4.57;;;1.88;;
66270;SDS011;53063;39.614;8.814;2023-02-28T15:48:04;5.22;;;2.65;;
66270;SDS011;53063;39.614;8.814;2023-02-28T15:50:31;8.82;;;4.80;;
66270;SDS011;53063;39.614;8.814;2023-02-28T15:52:57;6.00;;;3.40;;
66270;SDS011;53063;39.614;8.814;2023-02-28T15:55:26;9.07;;;4.40;;
66270;SDS011;53063;39.614;8.814;2023-02-28T15:57:55;8.65;;;4.53;;
66270;SDS011;53063;39.614;8.814;2023-02-28T16:00:25;7.55;;;3.80;;
66270;SDS011;53063;39.614;8.814;2023-02-28T16:02:52;20.40;;;10.05;;
66270;SDS011;53063;39.614;8.814;2023-02-28T16:05:26;5.75;;;4.80;;
66270;SDS011;53063;39.614;8.814;2023-02-28T16:07:58;12.68;;;4.93;;
66270;SDS011;53063;39.614;8.814;2023-02-28T16:10:26;4.07;;;2.50;;
66270;SDS011;53063;39.614;8.814;2023-02-28T16:12:56;4.05;;;2.80;;
66270;SDS011;53063;39.614;8.814;2023-02-28T16:15:24;11.50;;;5.28;;
66270;SDS011;53063;39.614;8.814;2023-02-28T16:17:55;10.07;;;3.90;;
66270;SDS011;53063;39.614;8.814;2023-02-28T16:20:23;9.13;;;3.05;;
66270;SDS011;53063;39.614;8.814;2023-02-28T16:22:52;5.07;;;1.95;;
66270;SDS011;53063;39.614;8.814;2023-02-28T16:25:20;5.38;;;3.00;;
66270;SDS011;53063;39.614;8.814;2023-02-28T16:27:50;4.28;;;2.30;;
66270;SDS011;53063;39.614;8.814;2023-02-28T16:30:26;12.63;;;5.47;;
66270;SDS011;53063;39.614;8.814;2023-02-28T16:32:56;14.35;;;8.15;;
66270;SDS011;53063;39.614;8.814;2023-02-28T16:35:23;18.58;;;10.07;;
66270;SDS011;53063;39.614;8.814;2023-02-28T16:37:52;6.40;;;4.35;;
66270;SDS011;53063;39.614;8.814;2023-02-28T16:40:21;9.80;;;6.22;;
66270;SDS011;53063;39.614;8.814;2023-02-28T16:42:50;6.40;;;3.70;;
66270;SDS011;53063;39.614;8.814;2023-02-28T16:45:23;5.65;;;3.53;;
66270;SDS011;53063;39.614;8.814;2023-02-28T16:47:54;7.35;;;4.50;;
66270;SDS011;53063;39.614;8.814;2023-02-28T16:50:25;6.53;;;3.40;;
66270;SDS011;53063;39.614;8.814;2023-02-28T16:52:52;5.10;;;2.80;;
66270;SDS011;53063;39.614;8.814;2023-02-28T16:55:19;12.93;;;6.75;;
66270;SDS011;53063;39.614;8.814;2023-02-28T16:57:51;5.78;;;3.83;;
66270;SDS011;53063;39.614;8.814;2023-02-28T17:00:24;5.50;;;3.05;;
66270;SDS011;53063;39.614;8.814;2023-02-28T17:02:52;14.10;;;7.45;;
66270;SDS011;53063;39.614;8.814;2023-02-28T17:05:19;8.65;;;5.75;;
66270;SDS011;53063;39.614;8.814;2023-02-28T17:07:46;5.82;;;3.92;;
66270;SDS011;53063;39.614;8.814;2023-02-28T17:10:16;7.93;;;4.95;;
66270;SDS011;53063;39.614;8.814;2023-02-28T17:12:46;24.17;;;13.47;;
66270;SDS011;53063;39.614;8.814;2023-02-28T17:15:14;18.70;;;10.40;;
66270;SDS011;53063;39.614;8.814;2023-02-28T17:17:41;33.83;;;20.70;;
66270;SDS011;53063;39.614;8.814;2023-02-28T17:20:15;20.27;;;12.00;;
66270;SDS011;53063;39.614;8.814;2023-02-28T17:22:53;21.13;;;12.30;;
66270;SDS011;53063;39.614;8.814;2023-02-28T17:25:24;24.20;;;14.40;;
66270;SDS011;53063;39.614;8.814;2023-02-28T17:27:54;21.92;;;13.98;;
66270;SDS011;53063;39.614;8.814;2023-02-28T17:30:23;12.68;;;9.40;;
66270;SDS011;53063;39.614;8.814;2023-02-28T17:32:55;27.15;;;16.02;;
66270;SDS011;53063;39.614;8.814;2023-02-28T17:35:25;34.83;;;19.98;;
66270;SDS011;53063;39.614;8.814;2023-02-28T17:37:54;33.78;;;19.48;;